Time;durP1;ratioP1;P1;durP2;ratioP2;P2;SDS_P1;SDS_P2;PMS_P1;PMS_P2;Temp;Humidity;BMP_temperature;BMP_pressure;BME280_temperature;BME280_humidity;BME280_pressure;Samples;Min_cycle;Max_cycle;Signal;HPM_P1;HPM_P2
2022/08/07 00:01:24;;;;;;;2.75;1.45;;;;;;;23.73;37.58;102342.53;5054223;28;20033;-66
2022/08/07 00:03:50;;;;;;;3.25;1.60;;;;;;;23.73;37.50;102346.16;5037646;28;20024;-66
2022/08/07 00:06:16;;;;;;;4.22;1.58;;;;;;;23.71;37.40;102331.78;5037574;28;20024;-66
2022/08/07 00:08:41;;;;;;;3.25;1.73;;;;;;;23.72;36.29;102338.13;5037619;28;20036;-66
2022/08/07 00:11:07;;;;;;;3.80;2.03;;;;;;;23.73;37.13;102342.53;5055461;28;20033;-66
2022/08/07 00:13:33;;;;;;;2.38;1.70;;;;;;;23.70;37.32;102343.75;5054196;28;20020;-66
2022/08/07 00:15:59;;;;;;;1.70;1.35;;;;;;;23.66;36.74;102341.56;5054226;28;20016;-66
2022/08/07 00:18:27;;;;;;;3.22;1.52;;;;;;;23.58;36.99;102358.88;5054279;28;20036;-66
2022/08/07 00:20:57;;;;;;;2.17;1.17;;;;;;;23.48;37.00;102360.13;5053806;28;20140;-65
2022/08/07 00:23:22;;;;;;;1.40;1.30;;;;;;;23.33;37.22;102354.47;5054157;28;20478;-65
2022/08/07 00:25:49;;;;;;;4.00;1.23;;;;;;;23.25;37.94;102343.56;5055160;28;20033;-64
2022/08/07 00:28:14;;;;;;;1.10;1.00;;;;;;;23.22;37.38;102343.91;5053904;28;20395;-64
2022/08/07 00:30:39;;;;;;;3.47;1.30;;;;;;;23.16;38.10;102350.09;5037243;28;20056;-64
2022/08/07 00:33:05;;;;;;;1.63;1.10;;;;;;;23.10;37.22;102339.84;5037302;28;20025;-64
2022/08/07 00:35:30;;;;;;;1.30;1.10;;;;;;;23.04;37.61;102337.78;5020638;28;20111;-65
2022/08/07 00:37:57;;;;;;;1.77;1.17;;;;;;;22.98;38.04;102352.16;5053657;28;20048;-65
2022/08/07 00:40:22;;;;;;;2.72;1.33;;;;;;;22.85;37.80;102346.38;5053667;28;20424;-64
2022/08/07 00:42:48;;;;;;;1.60;1.15;;;;;;;22.73;38.00;102342.25;5054670;28;20155;-64
2022/08/07 00:45:13;;;;;;;1.85;0.93;;;;;;;22.67;38.28;102345.72;5053204;28;20049;-64
2022/08/07 00:47:38;;;;;;;3.55;1.17;;;;;;;22.60;37.34;102340.88;5054712;28;20506;-65
2022/08/07 00:50:05;;;;;;;5.65;2.00;;;;;;;22.56;38.42;102331.31;5053381;28;20029;-64
2022/08/07 00:52:30;;;;;;;3.63;1.33;;;;;;;22.49;38.39;102335.75;5053468;28;20029;-64
2022/08/07 00:54:56;;;;;;;3.20;1.58;;;;;;;22.43;38.31;102320.06;5053338;28;20035;-64
2022/08/07 00:57:22;;;;;;;1.77;1.10;;;;;;;22.35;38.03;102328.25;5054602;28;20051;-65
2022/08/07 00:59:48;;;;;;;2.58;1.20;;;;;;;22.28;37.82;102319.00;5053342;28;20033;-64
2022/08/07 01:02:13;;;;;;;1.88;1.38;;;;;;;22.23;37.65;102321.38;5054308;28;20442;-65
2022/08/07 01:04:38;;;;;;;2.65;1.17;;;;;;;22.15;38.07;102310.47;5053271;28;20033;-65
2022/08/07 01:07:04;;;;;;;2.10;1.52;;;;;;;22.14;37.99;102322.41;5053209;28;20371;-64
2022/08/07 01:09:31;;;;;;;3.85;1.80;;;;;;;22.05;38.31;102317.97;5036433;28;20087;-64
2022/08/07 01:11:56;;;;;;;2.17;1.70;;;;;;;21.99;38.28;102315.91;5036442;28;20100;-65
2022/08/07 01:14:23;;;;;;;2.83;1.45;;;;;;;21.94;38.49;102312.81;5053132;28;20419;-64
2022/08/07 01:16:49;;;;;;;3.63;1.27;;;;;;;21.86;38.55;102312.78;5052992;28;20025;-64
2022/08/07 01:19:15;;;;;;;1.55;1.35;;;;;;;21.77;38.48;102325.53;5036183;28;20033;-64
2022/08/07 01:21:41;;;;;;;1.92;1.23;;;;;;;21.71;38.98;102311.69;5053742;28;20048;-64
2022/08/07 01:24:07;;;;;;;1.90;1.40;;;;;;;21.68;38.81;102317.47;5052883;28;20424;-64
2022/08/07 01:26:33;;;;;;;3.60;1.38;;;;;;;21.64;38.88;102310.63;5052730;28;20098;-64
2022/08/07 01:28:58;;;;;;;3.30;1.40;;;;;;;21.58;38.89;102311.31;5036066;28;20024;-64
2022/08/07 01:31:27;;;;;;;1.17;1.08;;;;;;;21.56;38.95;102307.88;5036177;28;20445;-63
2022/08/07 01:33:52;;;;;;;1.42;1.30;;;;;;;21.51;38.68;102307.53;5052642;28;20071;-64
2022/08/07 01:36:18;;;;;;;2.58;1.38;;;;;;;21.44;39.20;102305.44;5052703;28;20746;-64
2022/08/07 01:38:43;;;;;;;5.13;1.17;;;;;;;21.36;38.69;102299.97;5035931;28;20401;-64
2022/08/07 01:41:10;;;;;;;2.13;1.05;;;;;;;21.32;39.21;102309.50;5052596;28;20033;-64
2022/08/07 01:43:35;;;;;;;4.53;1.33;;;;;;;21.28;39.06;102294.47;5035686;28;20128;-64
2022/08/07 01:46:02;;;;;;;4.80;1.42;;;;;;;21.25;39.30;102304.84;5035791;28;20116;-64
2022/08/07 01:48:27;;;;;;;1.48;1.30;;;;;;;21.20;39.39;102301.75;5052432;28;20437;-64
2022/08/07 01:50:56;;;;;;;1.55;1.40;;;;;;;21.16;38.95;102308.56;5052177;28;20021;-64
2022/08/07 01:53:22;;;;;;;1.30;1.20;;;;;;;21.10;38.93;102307.34;5035590;28;20024;-64
2022/08/07 01:55:50;;;;;;;4.03;1.52;;;;;;;21.05;39.49;102309.63;5052304;28;20025;-64
2022/08/07 01:58:19;;;;;;;3.13;1.33;;;;;;;20.99;39.29;102301.25;5051536;28;20028;-64
2022/08/07 02:00:45;;;;;;;2.97;1.73;;;;;;;20.94;39.89;102301.72;5035419;28;20029;-64
2022/08/07 02:03:13;;;;;;;2.10;1.60;;;;;;;20.91;39.02;102312.94;5035175;28;20025;-64
2022/08/07 02:05:46;;;;;;;1.60;1.50;;;;;;;20.80;39.36;102295.00;5052086;28;20029;-65
2022/08/07 02:08:15;;;;;;;3.97;1.70;;;;;;;20.83;40.17;102296.53;5051919;28;20024;-64
2022/08/07 02:10:41;;;;;;;2.35;1.63;;;;;;;20.83;39.36;102294.69;5051938;28;20025;-64
2022/08/07 02:13:08;;;;;;;4.43;1.58;;;;;;;20.81;40.08;102304.91;5051969;28;20391;-64
2022/08/07 02:15:33;;;;;;;5.00;2.08;;;;;;;20.78;40.14;102297.03;5051811;28;20021;-64
2022/08/07 02:17:59;;;;;;;3.22;1.50;;;;;;;20.75;40.42;102291.06;5051955;28;20104;-64
2022/08/07 02:20:25;;;;;;;2.88;1.50;;;;;;;20.72;40.11;102291.38;5018567;28;20441;-64
2022/08/07 02:22:56;;;;;;;1.65;1.38;;;;;;;20.66;40.19;102298.31;5018711;28;20025;-64
2022/08/07 02:25:23;;;;;;;2.88;1.55;;;;;;;20.58;40.00;102287.34;5051687;28;20036;-64
2022/08/07 02:27:49;;;;;;;5.60;1.83;;;;;;;20.57;40.18;102282.06;5051654;28;20074;-64
2022/08/07 02:30:15;;;;;;;2.08;1.88;;;;;;;20.54;39.99;102279.66;5034853;28;20017;-64
2022/08/07 02:32:40;;;;;;;2.30;1.60;;;;;;;20.55;40.13;102278.63;5051579;28;20013;-64
2022/08/07 02:35:07;;;;;;;5.10;1.70;;;;;;;20.53;40.34;102281.53;5034900;28;20036;-64
2022/08/07 02:37:34;;;;;;;4.22;1.77;;;;;;;20.49;40.08;102277.41;5034739;28;20025;-64
2022/08/07 02:40:01;;;;;;;5.07;1.88;;;;;;;20.49;40.61;102287.47;5051374;28;20025;-64
2022/08/07 02:42:27;;;;;;;11.10;1.90;;;;;;;20.45;40.28;102291.50;5051347;28;20075;-64
2022/08/07 02:44:53;;;;;;;3.45;1.90;;;;;;;20.38;40.61;102285.81;5035090;28;20055;-64
2022/08/07 02:47:19;;;;;;;5.88;1.60;;;;;;;20.36;40.96;102287.84;5034708;28;20039;-64
2022/08/07 02:49:44;;;;;;;3.95;1.73;;;;;;;20.33;40.57;102280.00;5051188;28;20032;-63
2022/08/07 02:52:14;;;;;;;2.83;1.65;;;;;;;20.30;40.51;102280.31;5051324;28;20029;-64
2022/08/07 02:54:41;;;;;;;2.67;1.70;;;;;;;20.25;40.42;102280.78;5051356;28;20025;-64
2022/08/07 02:57:09;;;;;;;1.85;1.75;;;;;;;20.21;40.93;102282.06;5034512;28;20029;-64
2022/08/07 02:59:35;;;;;;;1.77;1.67;;;;;;;20.18;40.72;102282.38;5018258;28;20490;-64
2022/08/07 03:02:01;;;;;;;2.90;1.80;;;;;;;20.15;40.15;102282.72;5051130;28;20035;-64
2022/08/07 03:04:27;;;;;;;2.80;1.75;;;;;;;20.11;40.62;102291.34;5051007;28;20048;-64
2022/08/07 03:06:53;;;;;;;2.83;2.03;;;;;;;20.08;40.84;102289.78;5051081;28;20096;-64
2022/08/07 03:09:20;;;;;;;2.58;1.95;;;;;;;20.06;40.76;102291.81;5050980;28;20096;-64
2022/08/07 03:11:46;;;;;;;3.33;1.80;;;;;;;20.02;40.97;102282.22;5034396;28;20029;-64
2022/08/07 03:14:12;;;;;;;2.38;1.98;;;;;;;20.01;41.16;102275.09;5051032;28;20025;-64
2022/08/07 03:16:38;;;;;;;3.28;1.92;;;;;;;19.96;40.63;102277.41;5034324;28;20431;-64
2022/08/07 03:19:03;;;;;;;2.72;1.95;;;;;;;19.93;41.60;102272.31;5051126;28;20043;-65
2022/08/07 03:21:29;;;;;;;2.47;2.10;;;;;;;19.87;41.17;102272.91;5034091;28;20430;-64
2022/08/07 03:23:56;;;;;;;3.15;2.00;;;;;;;19.88;41.53;102280.03;5034180;28;20468;-64
2022/08/07 03:26:24;;;;;;;3.50;2.22;;;;;;;19.86;41.21;102289.38;5034266;28;20028;-64
2022/08/07 03:28:50;;;;;;;3.67;2.13;;;;;;;19.84;41.34;102285.97;5052028;28;20505;-64
2022/08/07 03:31:18;;;;;;;3.30;2.50;;;;;;;19.81;41.15;102281.69;5050987;28;20116;-64
2022/08/07 03:33:50;;;;;;;8.45;2.50;;;;;;;19.78;41.75;102279.28;5050927;28;20029;-65
2022/08/07 03:36:17;;;;;;;6.60;2.28;;;;;;;19.74;41.36;102266.97;5050836;28;20493;-64
2022/08/07 03:38:44;;;;;;;6.40;2.28;;;;;;;19.75;41.60;102279.56;5050806;28;20029;-64
2022/08/07 03:41:11;;;;;;;3.67;2.03;;;;;;;19.72;41.29;102269.00;5034049;28;20135;-64
2022/08/07 03:43:37;;;;;;;4.22;2.30;;;;;;;19.71;41.61;102270.00;5050627;28;20439;-64
2022/08/07 03:46:04;;;;;;;3.65;2.40;;;;;;;19.68;41.73;102270.34;5034044;28;20079;-64
2022/08/07 03:48:32;;;;;;;5.38;2.67;;;;;;;19.65;41.43;102273.34;5050562;28;20031;-64
2022/08/07 03:50:58;;;;;;;3.55;2.25;;;;;;;19.65;41.90;102273.34;5050653;28;20079;-64
2022/08/07 03:53:24;;;;;;;3.25;2.20;;;;;;;19.59;41.49;102263.94;5034069;28;20021;-64
2022/08/07 03:55:50;;;;;;;2.30;1.92;;;;;;;19.59;41.10;102268.53;5033904;28;20028;-63
2022/08/07 03:58:18;;;;;;;3.33;2.10;;;;;;;19.57;42.35;102268.66;5050614;28;20075;-64
2022/08/07 04:00:44;;;;;;;4.97;2.63;;;;;;;19.53;41.67;102270.00;5034349;28;20025;-63
2022/08/07 04:03:10;;;;;;;3.28;2.33;;;;;;;19.55;41.56;102277.97;5050460;28;20021;-64
2022/08/07 04:05:35;;;;;;;2.03;1.77;;;;;;;19.53;41.69;102289.00;5050573;28;20383;-64
2022/08/07 04:08:02;;;;;;;3.95;2.60;;;;;;;19.51;41.91;102296.47;5051679;28;20112;-64
2022/08/07 04:10:28;;;;;;;3.00;2.70;;;;;;;19.50;41.93;102289.31;5033898;28;20483;-63
2022/08/07 04:12:54;;;;;;;2.78;2.10;;;;;;;19.49;42.00;102287.59;5033808;28;20091;-64
2022/08/07 04:15:19;;;;;;;3.60;2.80;;;;;;;19.47;42.63;102284.19;5050458;28;20078;-64
2022/08/07 04:17:45;;;;;;;2.70;2.15;;;;;;;19.47;42.23;102278.75;5033756;28;20430;-64
2022/08/07 04:20:11;;;;;;;4.25;2.70;;;;;;;19.48;42.28;102276.88;5017471;28;20049;-63
2022/08/07 04:22:39;;;;;;;2.90;2.53;;;;;;;19.47;42.12;102278.75;5037263;28;20493;-65
2022/08/07 04:25:05;;;;;;;4.18;2.25;;;;;;;19.47;41.97;102283.31;5053926;28;20021;-64
2022/08/07 04:27:31;;;;;;;5.75;2.20;;;;;;;19.46;42.27;102273.44;5053839;28;20562;-64
2022/08/07 04:29:56;;;;;;;3.88;2.65;;;;;;;19.46;41.96;102284.31;5053947;28;20115;-64
2022/08/07 04:32:22;;;;;;;3.42;2.28;;;;;;;19.46;42.02;102284.31;5053742;28;20095;-64
2022/08/07 04:34:49;;;;;;;5.70;1.80;;;;;;;19.44;42.10;102281.75;5053851;28;20116;-64
2022/08/07 04:37:15;;;;;;;3.33;2.55;;;;;;;19.44;42.02;102280.91;5037255;28;20036;-64
2022/08/07 04:39:40;;;;;;;3.35;2.08;;;;;;;19.44;42.31;102287.19;5053732;28;20036;-63
2022/08/07 04:42:05;;;;;;;5.95;2.63;;;;;;;19.44;42.25;102283.63;5053619;28;20033;-63
2022/08/07 04:44:31;;;;;;;5.30;3.00;;;;;;;19.46;42.75;102285.19;5036848;28;20064;-64
2022/08/07 04:47:07;;;;;;;4.90;2.45;;;;;;;19.48;41.83;102280.47;5053538;28;20040;-64
2022/08/07 04:49:58;;;;;;;3.40;2.50;;;;;;;19.52;42.01;102289.16;5053359;28;20075;-64
2022/08/07 04:52:44;;;;;;;3.90;2.70;;;;;;;19.55;41.79;102287.00;5036817;28;20021;-64
2022/08/07 04:55:18;;;;;;;4.78;2.58;;;;;;;19.61;42.22;102285.53;5053486;28;20486;-64
2022/08/07 04:57:50;;;;;;;5.22;3.45;;;;;;;19.69;42.13;102282.91;5036662;28;20025;-63
2022/08/07 05:00:19;;;;;;;3.92;2.97;;;;;;;19.77;42.17;102288.44;5054504;28;20115;-64
2022/08/07 05:02:52;;;;;;;5.93;2.65;;;;;;;19.87;42.63;102278.34;5036473;28;20025;-64
2022/08/07 05:05:25;;;;;;;4.35;2.53;;;;;;;19.97;42.30;102286.44;5053167;28;20025;-64
2022/08/07 05:08:02;;;;;;;2.85;2.58;;;;;;;20.09;42.42;102283.34;5053216;28;20040;-64
2022/08/07 05:10:31;;;;;;;3.55;2.67;;;;;;;20.23;42.31;102295.53;5053327;28;20083;-64
2022/08/07 05:13:08;;;;;;;4.88;2.53;;;;;;;20.36;42.27;102295.16;5054267;28;20025;-64
2022/08/07 05:15:36;;;;;;;6.70;3.20;;;;;;;20.48;42.24;102299.34;5052972;28;20054;-64
2022/08/07 05:18:13;;;;;;;4.30;2.90;;;;;;;20.62;42.44;102302.38;5052888;28;20575;-64
2022/08/07 05:20:41;;;;;;;5.82;3.05;;;;;;;20.76;41.97;102298.22;5052778;28;20044;-64
2022/08/07 05:23:11;;;;;;;8.23;2.50;;;;;;;20.90;42.20;102300.34;5054005;28;20364;-64
2022/08/07 05:25:40;;;;;;;7.03;3.30;;;;;;;21.06;42.34;102310.50;5036179;28;20394;-64
2022/08/07 05:28:06;;;;;;;3.50;3.20;;;;;;;21.21;42.20;102308.91;5036155;28;20029;-64
2022/08/07 05:30:33;;;;;;;4.95;3.47;;;;;;;21.38;42.36;102302.53;5036359;28;20452;-63
2022/08/07 05:33:00;;;;;;;3.22;2.72;;;;;;;21.54;42.30;102308.06;5034991;28;20021;-64
2022/08/07 05:35:25;;;;;;;4.00;3.53;;;;;;;21.73;42.17;102304.19;5053750;28;20059;-64
2022/08/07 05:37:51;;;;;;;4.53;3.20;;;;;;;21.91;42.29;102310.44;5036030;28;20029;-65
2022/08/07 05:40:17;;;;;;;3.60;3.00;;;;;;;22.09;41.72;102302.94;5035999;28;20390;-64
2022/08/07 05:42:44;;;;;;;6.57;3.83;;;;;;;22.27;41.76;102306.41;5053643;28;20391;-64
2022/08/07 05:45:09;;;;;;;7.18;3.80;;;;;;;22.46;42.10;102308.78;5035975;28;20124;-64
2022/08/07 05:47:35;;;;;;;9.82;3.47;;;;;;;22.66;42.04;102316.66;5035704;28;20453;-64
2022/08/07 05:50:00;;;;;;;4.28;3.42;;;;;;;22.85;41.17;102321.78;5053513;28;20387;-64
2022/08/07 05:52:26;;;;;;;4.50;3.58;;;;;;;23.08;41.17;102320.03;5052134;28;20021;-64
2022/08/07 05:54:51;;;;;;;5.95;3.20;;;;;;;23.29;40.99;102320.28;5052296;28;20421;-64
2022/08/07 05:57:17;;;;;;;8.07;3.92;;;;;;;23.51;41.00;102311.34;5053376;28;20032;-64
2022/08/07 05:59:43;;;;;;;4.35;3.28;;;;;;;23.73;41.15;102310.56;5035530;28;20033;-64
2022/08/07 06:02:12;;;;;;;7.95;4.00;;;;;;;23.97;40.51;102311.47;5035498;28;20403;-65
2022/08/07 06:04:40;;;;;;;4.47;3.60;;;;;;;24.18;40.78;102314.44;5035282;28;20032;-65
2022/08/07 06:07:06;;;;;;;5.38;3.10;;;;;;;24.37;40.30;102316.72;5052095;28;20051;-64
2022/08/07 06:09:32;;;;;;;5.13;3.63;;;;;;;24.59;40.45;102318.59;5053130;28;20483;-64
2022/08/07 06:11:58;;;;;;;4.50;3.25;;;;;;;24.80;40.01;102316.00;5035262;28;20032;-65
2022/08/07 06:14:23;;;;;;;7.57;4.30;;;;;;;24.99;40.00;102317.34;5051822;28;20032;-65
2022/08/07 06:16:50;;;;;;;8.23;3.63;;;;;;;25.19;40.12;102320.41;5052904;28;20108;-65
2022/08/07 06:19:17;;;;;;;7.13;3.60;;;;;;;25.37;39.74;102320.88;5035305;28;20164;-65
2022/08/07 06:21:43;;;;;;;8.05;3.67;;;;;;;25.51;39.58;102314.56;5051552;28;20067;-65
2022/08/07 06:24:08;;;;;;;5.32;3.47;;;;;;;25.65;39.63;102312.84;5018433;28;20028;-65
2022/08/07 06:26:33;;;;;;;108.28;10.43;;;;;;;25.77;39.24;102319.53;5035035;28;20049;-63
2022/08/07 06:28:59;;;;;;;12.02;3.88;;;;;;;25.91;39.38;102318.63;5052807;28;20028;-65
2022/08/07 06:31:24;;;;;;;4.80;3.13;;;;;;;26.06;39.24;102319.47;5052882;28;20055;-65
2022/08/07 06:33:50;;;;;;;6.22;3.78;;;;;;;26.22;38.86;102313.75;5034797;28;20467;-66
2022/08/07 06:36:15;;;;;;;4.35;3.42;;;;;;;26.39;38.63;102314.34;5051571;28;20039;-65
2022/08/07 06:38:41;;;;;;;6.90;3.67;;;;;;;26.57;38.45;102312.84;5034726;28;20025;-66
2022/08/07 06:41:14;;;;;;;5.40;3.35;;;;;;;26.75;38.38;102303.22;5051474;28;20044;-65
2022/08/07 06:43:40;;;;;;;4.60;3.20;;;;;;;26.92;38.39;102308.28;5034287;28;20029;-65
2022/08/07 06:46:07;;;;;;;4.43;3.63;;;;;;;27.10;37.58;102308.63;5034738;28;20082;-65
2022/08/07 06:48:32;;;;;;;4.50;3.05;;;;;;;27.26;37.37;102312.09;5034525;28;20063;-65
2022/08/07 06:50:59;;;;;;;4.40;3.60;;;;;;;27.40;37.53;102300.97;5051388;28;20052;-65
2022/08/07 06:53:25;;;;;;;4.72;3.35;;;;;;;27.55;37.73;102296.22;5051261;28;20066;-65
2022/08/07 06:55:51;;;;;;;4.43;3.30;;;;;;;27.78;37.34;102306.88;5034541;28;20505;-65
2022/08/07 06:58:17;;;;;;;3.45;3.00;;;;;;;27.94;36.61;102309.28;5051183;28;20033;-65
2022/08/07 07:00:43;;;;;;;4.88;3.40;;;;;;;28.15;36.31;102298.13;5034543;28;20395;-65
2022/08/07 07:03:09;;;;;;;9.00;3.35;;;;;;;28.35;36.77;102308.31;5051161;28;20525;-65
2022/08/07 07:05:35;;;;;;;3.53;3.20;;;;;;;28.54;36.11;102299.22;5034278;28;20115;-65
2022/08/07 07:08:01;;;;;;;4.13;3.08;;;;;;;28.69;35.81;102294.38;5034323;28;20119;-65
2022/08/07 07:10:32;;;;;;;7.88;3.70;;;;;;;28.88;36.38;102299.03;5051140;28;20390;-65
2022/08/07 07:13:12;;;;;;;6.30;3.50;;;;;;;29.04;35.95;102292.19;5051112;28;20028;-65
2022/08/07 07:15:50;;;;;;;5.03;3.90;;;;;;;29.21;35.40;102293.44;5034349;28;20021;-65
2022/08/07 07:18:21;;;;;;;4.13;3.10;;;;;;;29.38;34.96;102294.69;5052391;28;20390;-65
2022/08/07 07:20:55;;;;;;;4.60;3.13;;;;;;;29.57;35.20;102292.91;5034186;28;20418;-64
2022/08/07 07:23:21;;;;;;;4.85;3.40;;;;;;;29.73;34.69;102304.31;5050805;28;20025;-66
2022/08/07 07:25:48;;;;;;;6.32;3.97;;;;;;;29.87;34.82;102299.63;5034204;28;20032;-65
2022/08/07 07:28:22;;;;;;;4.75;2.92;;;;;;;30.04;34.75;102292.50;5050847;28;20100;-65
2022/08/07 07:30:53;;;;;;;4.72;3.17;;;;;;;30.21;34.08;102296.44;5050995;28;20025;-65
2022/08/07 07:33:19;;;;;;;5.20;3.63;;;;;;;30.39;34.15;102292.94;5050958;28;20021;-65
2022/08/07 07:35:47;;;;;;;7.88;3.80;;;;;;;30.54;34.02;102294.28;5050862;28;20033;-65
2022/08/07 07:38:14;;;;;;;7.50;2.95;;;;;;;30.74;33.46;102296.06;5050854;28;20028;-65
2022/08/07 07:40:40;;;;;;;4.43;3.22;;;;;;;30.90;33.29;102303.78;5050934;28;20091;-65
2022/08/07 07:43:07;;;;;;;4.00;2.90;;;;;;;31.04;32.98;102303.47;5050729;28;20471;-64
2022/08/07 07:45:32;;;;;;;4.95;3.50;;;;;;;31.21;33.21;102302.88;5052052;28;20021;-65
2022/08/07 07:47:59;;;;;;;7.90;4.63;;;;;;;31.35;32.96;102294.16;5050766;28;20051;-65
2022/08/07 07:50:26;;;;;;;4.93;3.08;;;;;;;31.43;32.94;102285.56;5034172;28;20037;-65
2022/08/07 07:52:52;;;;;;;7.82;3.05;;;;;;;31.58;32.82;102288.78;5050802;28;20021;-65
2022/08/07 07:55:18;;;;;;;5.32;3.53;;;;;;;31.74;32.25;102283.69;5051188;28;20070;-65
2022/08/07 07:57:46;;;;;;;3.85;3.35;;;;;;;31.88;32.98;102280.53;5021534;28;20529;-65
2022/08/07 08:00:13;;;;;;;5.05;3.45;;;;;;;32.04;32.28;102282.66;5037973;28;20448;-65
2022/08/07 08:02:40;;;;;;;3.67;2.63;;;;;;;32.20;32.08;102281.13;5021354;28;20028;-65
2022/08/07 08:05:08;;;;;;;5.97;3.58;;;;;;;32.34;32.05;102278.97;5054443;28;20027;-65
2022/08/07 08:07:35;;;;;;;5.15;3.15;;;;;;;32.48;32.28;102272.97;5037783;28;20032;-65
2022/08/07 08:10:01;;;;;;;3.88;3.25;;;;;;;32.64;31.42;102272.31;5054368;28;20031;-65
2022/08/07 08:12:27;;;;;;;4.10;3.08;;;;;;;32.79;31.86;102272.69;5021260;28;20028;-65
2022/08/07 08:14:53;;;;;;;7.25;3.80;;;;;;;32.97;30.68;102281.97;5037743;28;20117;-65
2022/08/07 08:17:20;;;;;;;4.43;3.08;;;;;;;33.11;31.49;102275.13;5055500;28;20040;-65
2022/08/07 08:19:45;;;;;;;3.45;3.15;;;;;;;33.27;30.84;102274.38;5054173;28;20484;-65
2022/08/07 08:27:42;;;;;;;7.43;3.38;;;;;;;33.62;30.01;102268.72;5054295;28;20079;-65
2022/08/07 08:30:09;;;;;;;5.53;2.60;;;;;;;33.73;30.00;102263.13;5037658;28;20433;-65
2022/08/07 08:32:40;;;;;;;5.38;2.60;;;;;;;33.87;29.80;102272.84;5054257;28;20029;-66
2022/08/07 08:35:09;;;;;;;2.80;2.33;;;;;;;34.02;29.15;102268.69;5037448;28;20031;-65
2022/08/07 08:37:36;;;;;;;2.53;2.33;;;;;;;34.20;29.78;102268.50;5054101;28;20106;-65
2022/08/07 08:40:05;;;;;;;3.15;2.47;;;;;;;34.36;29.21;102262.94;5037655;28;20123;-65
2022/08/07 08:42:40;;;;;;;5.20;2.25;;;;;;;34.49;29.46;102258.97;5054190;28;20025;-65
2022/08/07 08:45:14;;;;;;;2.92;2.58;;;;;;;34.67;28.97;102260.69;5053889;28;20118;-66
2022/08/07 08:47:58;;;;;;;6.97;2.33;;;;;;;34.79;28.39;102251.13;5054987;28;20025;-65
2022/08/07 08:50:36;;;;;;;7.00;2.50;;;;;;;34.94;27.68;102245.78;5037037;28;20025;-65
2022/08/07 08:53:14;;;;;;;6.60;2.22;;;;;;;35.14;27.33;102252.78;5053566;28;20028;-65
2022/08/07 08:55:55;;;;;;;3.20;1.50;;;;;;;35.27;27.11;102255.19;5053623;28;20474;-65
2022/08/07 08:58:26;;;;;;;3.50;1.70;;;;;;;35.39;27.64;102247.53;5053438;28;20027;-65
2022/08/07 09:00:59;;;;;;;3.85;1.85;;;;;;;35.51;26.62;102242.69;5036884;28;20540;-65
2022/08/07 09:03:30;;;;;;;1.98;1.85;;;;;;;35.67;26.48;102250.13;5053331;28;20467;-65
2022/08/07 09:06:05;;;;;;;3.20;1.90;;;;;;;35.82;26.42;102241.09;5053265;28;20028;-65
2022/08/07 09:09:00;;;;;;;2.85;1.55;;;;;;;35.96;26.05;102237.59;5053285;28;20032;-66
2022/08/07 09:11:42;;;;;;;4.03;0.90;;;;;;;36.15;25.98;102233.38;5053338;28;20029;-65
2022/08/07 09:14:18;;;;;;;0.30;0.30;;;;;;;36.29;25.28;102230.13;5036627;28;20044;-65
2022/08/07 09:16:56;;;;;;;1.17;0.63;;;;;;;36.45;25.25;102237.53;5036424;28;20025;-66
2022/08/07 09:19:59;;;;;;;0.68;0.68;;;;;;;36.60;24.89;102229.31;5054763;28;20535;-66
2022/08/07 09:22:36;;;;;;;1.95;0.52;;;;;;;36.73;24.65;102232.47;5035314;28;20045;-66
2022/08/07 09:25:10;;;;;;;0.90;0.60;;;;;;;36.87;24.13;102243.16;5051953;28;20119;-66
2022/08/07 09:27:50;;;;;;;0.70;0.43;;;;;;;37.01;24.29;102238.78;5018789;28;20028;-66
2022/08/07 09:30:16;;;;;;;2.20;0.52;;;;;;;37.15;24.41;102235.25;5035324;28;20043;-65
2022/08/07 09:32:56;;;;;;;0.47;0.47;;;;;;;37.26;23.85;102236.97;5035223;28;20037;-65
2022/08/07 09:35:50;;;;;;;1.83;0.50;;;;;;;37.41;24.01;102226.97;5035165;28;20036;-65
2022/08/07 09:38:37;;;;;;;1.75;0.40;;;;;;;37.50;23.02;102222.53;5035152;28;20498;-65
2022/08/07 09:41:27;;;;;;;1.05;0.60;;;;;;;37.60;23.08;102225.38;5034907;28;20025;-65
2022/08/07 09:44:13;;;;;;;0.82;0.80;;;;;;;37.70;23.52;102219.78;5051356;28;20056;-66
2022/08/07 09:47:00;;;;;;;1.98;0.88;;;;;;;37.77;22.82;102223.19;5035010;28;20485;-65
2022/08/07 09:49:42;;;;;;;2.50;0.63;;;;;;;37.86;22.38;102218.69;5051401;28;20036;-65
2022/08/07 09:52:25;;;;;;;0.60;0.40;;;;;;;37.95;22.92;102217.06;5034910;28;20103;-66
2022/08/07 09:55:24;;;;;;;2.80;0.65;;;;;;;38.02;22.50;102212.03;5051351;28;20029;-66
2022/08/07 09:58:19;;;;;;;2.20;0.80;;;;;;;38.27;22.33;102214.84;5033858;28;20429;-65
2022/08/07 10:01:08;;;;;;;0.60;0.60;;;;;;;38.72;22.62;102211.19;5053280;28;20059;-65
2022/08/07 10:03:36;;;;;;;2.80;2.70;;;;;;;39.21;21.75;102197.31;5051835;28;20052;-65
2022/08/07 10:06:22;;;;;;;3.03;2.92;;;;;;;39.87;21.78;102200.59;5051983;28;20029;-65
2022/08/07 10:09:09;;;;;;;3.05;0.88;;;;;;;40.92;20.49;102199.94;5052027;28;20028;-65
2022/08/07 10:11:46;;;;;;;0.70;0.70;;;;;;;42.27;19.81;102204.78;5053104;28;20029;-65
2022/08/07 10:14:23;;;;;;;2.85;0.70;;;;;;;42.80;19.38;102197.56;5053110;28;20474;-65
2022/08/07 10:17:10;;;;;;;1.02;0.80;;;;;;;42.25;19.57;102179.72;5051959;28;20029;-65
2022/08/07 10:20:03;;;;;;;2.25;0.85;;;;;;;41.71;19.84;102185.09;5052374;28;20079;-65
2022/08/07 10:22:44;;;;;;;1.17;0.88;;;;;;;41.40;20.29;102190.34;5052971;28;20120;-65
2022/08/07 10:25:22;;;;;;;2.38;0.68;;;;;;;41.23;20.16;102184.34;5052995;28;20110;-65
2022/08/07 10:28:23;;;;;;;0.73;0.68;;;;;;;41.23;19.94;102187.16;5051542;28;20029;-66
2022/08/07 10:31:26;;;;;;;0.85;0.70;;;;;;;41.34;19.94;102185.94;5050198;28;20474;-66
2022/08/07 10:34:16;;;;;;;1.75;0.70;;;;;;;41.36;19.81;102178.00;5052686;28;20028;-66
2022/08/07 10:36:43;;;;;;;1.48;0.75;;;;;;;41.43;19.85;102178.47;5052736;28;20470;-66
2022/08/07 10:39:33;;;;;;;0.90;0.73;;;;;;;41.55;19.69;102173.22;5052581;28;20029;-65
2022/08/07 10:42:11;;;;;;;1.05;0.70;;;;;;;41.72;19.59;102169.84;5051453;28;20501;-65
2022/08/07 10:44:44;;;;;;;4.78;1.15;;;;;;;41.97;19.19;102177.06;5051365;28;20021;-66
2022/08/07 10:47:30;;;;;;;0.50;0.50;;;;;;;42.21;19.37;102169.38;5051291;28;20039;-66
2022/08/07 10:49:59;;;;;;;1.20;0.98;;;;;;;42.40;19.17;102169.31;5051311;28;20070;-66
2022/08/07 10:52:35;;;;;;;3.70;1.30;;;;;;;42.54;19.00;102156.91;5052490;28;20028;-65
2022/08/07 10:55:18;;;;;;;1.10;0.70;;;;;;;42.69;18.81;102167.88;5051179;28;20031;-65
2022/08/07 10:57:56;;;;;;;0.60;0.60;;;;;;;42.80;18.88;102165.72;5052449;28;20021;-65
2022/08/07 11:00:26;;;;;;;1.10;0.80;;;;;;;42.89;18.35;102161.84;5051283;28;20494;-65
2022/08/07 11:03:16;;;;;;;1.75;0.60;;;;;;;43.05;18.44;102153.09;5051158;28;20048;-66
2022/08/07 11:06:01;;;;;;;0.80;0.80;;;;;;;43.19;18.56;102153.91;5034239;28;20099;-65
2022/08/07 11:08:48;;;;;;;1.23;0.77;;;;;;;43.26;18.34;102148.66;5034496;28;20053;-65
2022/08/07 11:11:20;;;;;;;2.15;0.60;;;;;;;43.23;18.81;102133.19;5051162;28;20021;-65
2022/08/07 11:13:53;;;;;;;2.03;0.95;;;;;;;43.29;18.49;102137.56;5051233;28;20167;-61
2022/08/07 11:16:24;;;;;;;2.03;0.85;;;;;;;43.44;18.38;102131.56;5034576;28;20021;-65
2022/08/07 11:19:17;;;;;;;3.70;0.70;;;;;;;43.44;18.44;102136.41;5052577;28;20370;-65
2022/08/07 11:22:04;;;;;;;1.48;1.15;;;;;;;43.54;18.56;102133.31;5050288;28;20045;-65
2022/08/07 11:24:38;;;;;;;2.50;0.65;;;;;;;43.62;18.30;102137.38;5034231;28;20525;-66
2022/08/07 11:27:31;;;;;;;1.05;0.60;;;;;;;43.68;18.51;102124.78;5050936;28;20021;-67
2022/08/07 11:30:04;;;;;;;1.60;0.80;;;;;;;43.70;17.90;102126.13;5050813;28;20032;-66
2022/08/07 11:32:38;;;;;;;1.02;0.90;;;;;;;43.69;17.71;102121.66;5056141;28;20029;-65
2022/08/07 11:35:09;;;;;;;1.20;0.63;;;;;;;43.70;18.01;102125.28;5038603;28;20028;-65
2022/08/07 11:37:40;;;;;;;3.13;0.70;;;;;;;43.70;17.42;102128.97;5054223;28;20025;-65
2022/08/07 11:40:35;;;;;;;3.42;1.70;;;;;;;43.67;17.84;102121.13;5056180;28;20029;-66
2022/08/07 11:43:23;;;;;;;2.55;0.80;;;;;;;43.65;17.94;102112.16;5055988;28;20032;-65
2022/08/07 11:46:07;;;;;;;2.08;1.02;;;;;;;43.64;17.87;102110.47;5054958;28;20730;-65